Samos, Greece
Current Conditions -  °F | °C
As of 9:50 AM on Thursday 27 Nov 2014 (Local Time) from LGSM Reporting Station
Few Clouds Few Clouds  
Wind Chill: 10°   Ceiling: Unl
Heat Index: 10°   Visibility: 6mi
Dew Point:   Wind: 9mph
Humidity: 71%   Direction: 30°NNE
Pressure: 30.12"   Gusts: NA
Location:  37.76°N, 26.98°E
Report Text: LGSM 270650Z 03008KT 9999 FEW025 10/05 Q1020
Loading
Personal Weather Stations






























Interactive Weather Map New forecast layout! Learn more

10-Day Weather Forecast

Advertisements
Track Severe Weather on mobile